createdAt,value
2018-08-24T00:00:15.435Z,47.90
2018-08-24T00:02:44.106Z,47.92
2018-08-24T00:05:12.840Z,47.11
2018-08-24T00:07:41.404Z,47.87
2018-08-24T00:10:10.012Z,47.38
2018-08-24T00:12:38.627Z,47.11
2018-08-24T00:15:07.295Z,47.96
2018-08-24T00:17:36.120Z,47.07
2018-08-24T00:20:04.705Z,47.20
2018-08-24T00:22:33.298Z,47.12
2018-08-24T00:25:01.927Z,47.27
2018-08-24T00:27:30.449Z,49.10
2018-08-24T00:29:59.041Z,50.29
2018-08-24T00:32:27.748Z,50.90
2018-08-24T00:34:56.370Z,51.70
2018-08-24T00:37:24.992Z,52.78
2018-08-24T00:39:53.502Z,54.06
2018-08-24T00:42:22.095Z,54.14
2018-08-24T00:44:50.659Z,54.03
2018-08-24T00:47:19.229Z,54.41
2018-08-24T00:49:47.949Z,54.70
2018-08-24T00:52:16.606Z,55.29
2018-08-24T00:54:45.206Z,55.21
2018-08-24T00:57:13.879Z,55.36
2018-08-24T00:59:42.553Z,55.63
2018-08-24T01:02:11.168Z,55.91
2018-08-24T01:04:39.744Z,56.09
2018-08-24T01:07:12.446Z,57.14
2018-08-24T01:09:41.745Z,56.79
2018-08-24T01:12:10.354Z,57.33
2018-08-24T01:14:40.094Z,57.20
2018-08-24T01:17:13.918Z,57.30
2018-08-24T01:19:42.975Z,56.57
2018-08-24T01:22:11.519Z,56.41
2018-08-24T01:24:40.114Z,57.44
2018-08-24T01:27:09.274Z,57.17
2018-08-24T01:29:38.862Z,57.46
2018-08-24T01:32:07.620Z,56.93
2018-08-24T01:34:37.014Z,57.20
2018-08-24T01:37:05.600Z,56.76
2018-08-24T01:39:34.345Z,57.18
2018-08-24T01:42:02.981Z,57.59
2018-08-24T01:44:31.559Z,56.86
2018-08-24T01:47:00.181Z,57.63
2018-08-24T01:49:28.751Z,57.01
2018-08-24T01:51:57.263Z,57.05
2018-08-24T01:54:25.848Z,57.67
2018-08-24T01:56:54.433Z,57.70
2018-08-24T01:59:23.014Z,57.89
2018-08-24T02:01:51.567Z,57.99
2018-08-24T02:04:20.103Z,57.15
2018-08-24T02:06:48.617Z,57.63
2018-08-24T02:09:21.590Z,57.46
2018-08-24T02:11:50.545Z,57.43
2018-08-24T02:14:24.643Z,58.64
2018-08-24T02:16:53.228Z,58.50
2018-08-24T02:19:27.057Z,57.98
2018-08-24T02:22:00.837Z,58.85
2018-08-24T02:24:29.347Z,58.08
2018-08-24T02:26:58.058Z,58.40
2018-08-24T02:29:26.652Z,58.90
2018-08-24T02:31:55.199Z,58.41
2018-08-24T02:34:23.700Z,58.36
2018-08-24T02:36:52.358Z,58.68
2018-08-24T02:39:20.942Z,58.10
2018-08-24T02:41:49.503Z,58.20
2018-08-24T02:44:18.072Z,58.61
2018-08-24T02:46:47.346Z,58.25
2018-08-24T02:49:15.915Z,57.70
2018-08-24T02:51:44.584Z,57.89
2018-08-24T02:54:13.041Z,57.92
2018-08-24T02:56:41.560Z,58.21
2018-08-24T02:59:10.099Z,58.00
2018-08-24T03:01:38.659Z,58.17
2018-08-24T03:04:07.253Z,58.58
2018-08-24T03:06:35.787Z,58.41
2018-08-24T03:09:06.745Z,57.95
2018-08-24T03:11:35.210Z,58.77
2018-08-24T03:14:03.791Z,59.07
2018-08-24T03:16:32.409Z,58.89
2018-08-24T03:19:00.862Z,58.08
2018-08-24T03:21:29.333Z,58.54
2018-08-24T03:23:57.873Z,58.92
2018-08-24T03:26:26.471Z,59.42
2018-08-24T03:28:54.992Z,58.86
2018-08-24T03:31:23.557Z,58.45
2018-08-24T03:33:52.065Z,58.48
2018-08-24T03:36:20.601Z,59.35
2018-08-24T03:38:49.182Z,58.45
2018-08-24T03:41:17.717Z,58.50
2018-08-24T03:43:46.321Z,58.81
2018-08-24T03:46:14.858Z,59.05
2018-08-24T03:48:43.402Z,58.62
2018-08-24T03:51:11.930Z,59.33
2018-08-24T03:53:40.497Z,58.69
2018-08-24T03:56:09.320Z,59.68
2018-08-24T03:58:37.912Z,59.67
2018-08-24T04:01:06.581Z,58.92
2018-08-24T04:03:35.132Z,58.88
2018-08-24T04:06:03.736Z,58.97
2018-08-24T04:08:32.306Z,59.45
2018-08-24T04:11:00.867Z,58.53
2018-08-24T04:13:29.442Z,58.75
2018-08-24T04:15:58.032Z,59.29
2018-08-24T04:18:26.657Z,58.43
2018-08-24T04:20:55.231Z,58.24
2018-08-24T04:23:23.828Z,58.44
2018-08-24T04:25:52.423Z,58.35
2018-08-24T04:28:21.010Z,58.76
2018-08-24T04:30:49.637Z,58.76
2018-08-24T04:33:18.265Z,58.54
2018-08-24T04:35:46.739Z,57.40
2018-08-24T04:38:15.366Z,57.87
2018-08-24T04:40:44.063Z,57.84
2018-08-24T04:43:12.562Z,57.21
2018-08-24T04:45:41.205Z,57.02
2018-08-24T04:48:09.676Z,56.83
2018-08-24T04:50:38.241Z,57.15
2018-08-24T04:53:06.940Z,57.30
2018-08-24T04:55:35.633Z,57.24
2018-08-24T04:58:04.268Z,56.69
2018-08-24T05:03:23.238Z,56.98
2018-08-24T05:05:52.090Z,57.58
2018-08-24T05:08:20.677Z,56.98
2018-08-24T05:10:49.196Z,56.95
2018-08-24T05:13:17.832Z,57.66
2018-08-24T05:15:46.459Z,57.15
2018-08-24T05:18:15.242Z,56.88
2018-08-24T05:20:43.946Z,57.36
2018-08-24T05:23:12.636Z,57.59
2018-08-24T05:25:41.262Z,57.64
2018-08-24T05:28:09.913Z,56.80
2018-08-24T05:30:38.528Z,57.32
2018-08-24T05:33:07.164Z,57.59
2018-08-24T05:35:35.814Z,56.86
2018-08-24T05:38:04.440Z,57.56
2018-08-24T05:40:32.973Z,56.84
2018-08-24T05:43:01.606Z,56.52
2018-08-24T05:45:30.322Z,56.95
2018-08-24T05:47:58.896Z,56.69
2018-08-24T05:50:28.027Z,56.85
2018-08-24T05:52:56.757Z,56.75
2018-08-24T05:55:25.428Z,56.22
2018-08-24T05:57:54.080Z,56.62
2018-08-24T06:00:39.112Z,57.40
2018-08-24T06:03:08.255Z,57.14
2018-08-24T06:05:39.263Z,56.72
2018-08-24T06:08:08.003Z,57.10
2018-08-24T06:10:36.749Z,56.15
2018-08-24T06:13:06.092Z,56.77
2018-08-24T06:15:35.672Z,56.51
2018-08-24T06:18:04.272Z,56.82
2018-08-24T06:20:33.331Z,56.47
2018-08-24T06:23:01.953Z,56.95
2018-08-24T06:25:30.644Z,56.76
2018-08-24T06:27:59.298Z,56.41
2018-08-24T06:30:27.900Z,56.78
2018-08-24T06:32:56.873Z,56.42
2018-08-24T06:35:25.573Z,56.47
2018-08-24T06:37:54.208Z,56.05
2018-08-24T06:40:22.919Z,55.83
2018-08-24T06:42:51.494Z,55.80
2018-08-24T06:45:20.056Z,56.50
2018-08-24T06:47:48.758Z,55.81
2018-08-24T06:50:17.378Z,55.74
2018-08-24T06:52:45.949Z,55.63
2018-08-24T06:55:14.719Z,55.75
2018-08-24T06:57:43.326Z,55.90
2018-08-24T07:00:11.929Z,55.78
2018-08-24T07:02:40.624Z,55.58
2018-08-24T07:05:09.338Z,55.29
2018-08-24T07:07:37.798Z,55.75
2018-08-24T07:10:06.412Z,54.95
2018-08-24T07:12:35.017Z,55.52
2018-08-24T07:15:03.664Z,55.38
2018-08-24T07:17:37.321Z,55.72
2018-08-24T07:20:06.172Z,55.60
2018-08-24T07:22:34.680Z,54.82
2018-08-24T07:25:03.801Z,55.22
2018-08-24T07:27:32.300Z,54.96
2018-08-24T07:30:00.815Z,54.92
2018-08-24T07:32:29.403Z,54.75
2018-08-24T07:34:57.958Z,54.66
2018-08-24T07:37:26.808Z,54.11
2018-08-24T07:39:55.443Z,54.59
2018-08-24T07:42:24.273Z,54.64
2018-08-24T07:44:53.372Z,53.91
2018-08-24T07:47:22.669Z,53.89
2018-08-24T07:49:51.716Z,53.67
2018-08-24T07:52:20.261Z,54.21
2018-08-24T07:54:48.960Z,53.89
2018-08-24T07:57:17.499Z,53.22
2018-08-24T07:59:46.128Z,53.09
2018-08-24T08:02:14.782Z,52.92
2018-08-24T08:04:43.262Z,53.10
2018-08-24T08:07:11.965Z,53.17
2018-08-24T08:09:40.733Z,53.25
2018-08-24T08:12:09.252Z,52.36
2018-08-24T08:14:41.890Z,52.22
2018-08-24T08:17:10.492Z,53.21
2018-08-24T08:19:39.531Z,52.05
2018-08-24T08:22:08.067Z,52.44
2018-08-24T08:24:36.628Z,52.05
2018-08-24T08:27:08.408Z,51.65
2018-08-24T08:30:11.354Z,51.79
2018-08-24T08:32:39.994Z,51.53
2018-08-24T08:35:08.771Z,51.04
2018-08-24T08:37:37.393Z,51.34
2018-08-24T08:40:06.035Z,52.03
2018-08-24T08:42:34.572Z,51.42
2018-08-24T08:45:03.625Z,51.72
2018-08-24T08:47:32.198Z,51.51
2018-08-24T08:50:00.765Z,51.60
2018-08-24T08:52:29.328Z,51.89
2018-08-24T08:54:57.942Z,52.14
2018-08-24T08:57:27.137Z,52.69
2018-08-24T08:59:55.757Z,52.64
2018-08-24T09:02:24.369Z,53.33
2018-08-24T09:04:53.107Z,52.79
2018-08-24T09:07:21.673Z,53.44
2018-08-24T09:09:50.263Z,53.55
2018-08-24T09:12:18.858Z,52.67
2018-08-24T09:14:47.340Z,52.83
2018-08-24T09:17:21.220Z,53.08
2018-08-24T09:19:55.151Z,52.58
2018-08-24T09:22:28.974Z,50.73
2018-08-24T09:25:02.644Z,50.44
2018-08-24T09:27:37.955Z,51.03
2018-08-24T09:30:06.652Z,48.92
2018-08-24T09:32:35.290Z,47.85
2018-08-24T09:35:03.852Z,45.93
2018-08-24T09:37:36.046Z,43.03
2018-08-24T09:40:04.894Z,42.68
2018-08-24T09:42:33.479Z,41.74
2018-08-24T09:45:02.048Z,40.80
2018-08-24T09:47:35.840Z,40.31
2018-08-24T09:50:09.547Z,41.05
2018-08-24T09:52:38.061Z,40.10
2018-08-24T09:55:06.692Z,40.61
2018-08-24T09:57:35.215Z,38.77
2018-08-24T10:00:03.830Z,38.88
2018-08-24T10:02:37.659Z,37.25
2018-08-24T10:05:11.857Z,37.43
2018-08-24T10:07:44.443Z,37.59
2018-08-24T10:10:12.960Z,36.21
2018-08-24T10:12:41.506Z,34.47
2018-08-24T10:15:10.356Z,33.55
2018-08-24T10:17:38.979Z,31.40
2018-08-24T10:20:07.855Z,29.38
2018-08-24T10:22:36.443Z,28.05
2018-08-24T10:25:05.282Z,28.06
2018-08-24T10:27:34.021Z,27.26
2018-08-24T10:30:02.765Z,25.65
2018-08-24T10:32:31.393Z,24.40
2018-08-24T10:35:00.149Z,21.99
2018-08-24T10:37:28.820Z,21.35
2018-08-24T10:39:57.360Z,21.34
2018-08-24T10:42:25.948Z,21.67
2018-08-24T10:44:54.687Z,22.26
2018-08-24T10:47:23.429Z,23.14
2018-08-24T10:49:52.349Z,23.66
2018-08-24T10:52:21.046Z,24.42
2018-08-24T10:54:49.835Z,23.93
2018-08-24T10:57:18.463Z,22.72
2018-08-24T10:59:46.968Z,22.29
2018-08-24T11:02:15.449Z,22.57
2018-08-24T11:04:43.973Z,22.81
2018-08-24T11:07:12.727Z,24.11
2018-08-24T11:09:41.374Z,24.13
2018-08-24T11:12:10.014Z,22.41
2018-08-24T11:14:38.633Z,19.69
2018-08-24T11:17:07.192Z,17.48
2018-08-24T11:19:35.921Z,15.80
2018-08-24T11:22:04.627Z,15.36
2018-08-24T11:24:33.310Z,15.73
2018-08-24T11:27:02.127Z,15.13
2018-08-24T11:29:30.623Z,14.87
2018-08-24T11:31:59.325Z,14.54
2018-08-24T11:34:27.886Z,13.65
2018-08-24T11:36:56.644Z,13.58
2018-08-24T11:39:25.436Z,14.03
2018-08-24T11:41:54.220Z,14.29
2018-08-24T11:44:23.093Z,15.39
2018-08-24T11:46:51.771Z,15.17
2018-08-24T11:49:20.472Z,14.24
2018-08-24T11:51:49.943Z,14.48
2018-08-24T11:54:18.757Z,15.16
2018-08-24T11:56:47.452Z,16.08
2018-08-24T11:59:16.133Z,16.79
2018-08-24T12:01:45.022Z,17.69
2018-08-24T12:04:13.838Z,18.27
2018-08-24T12:06:42.332Z,18.37
2018-08-24T12:09:12.273Z,19.14
2018-08-24T12:11:40.789Z,19.31
2018-08-24T12:14:09.477Z,19.28
2018-08-24T12:16:37.908Z,19.49
2018-08-24T12:19:06.444Z,19.32
2018-08-24T12:21:34.987Z,19.24
2018-08-24T12:24:03.473Z,19.87
2018-08-24T12:26:31.999Z,20.11
2018-08-24T12:29:00.560Z,21.05
2018-08-24T12:31:29.023Z,20.03
2018-08-24T12:33:57.932Z,20.39
2018-08-24T12:36:26.531Z,20.57
2018-08-24T12:38:55.053Z,20.37
2018-08-24T12:41:23.704Z,21.89
2018-08-24T12:43:52.181Z,22.36
2018-08-24T12:46:20.653Z,22.41
2018-08-24T12:48:49.278Z,22.58
2018-08-24T12:51:17.788Z,21.97
2018-08-24T12:53:46.369Z,22.52
2018-08-24T12:56:21.018Z,23.05
2018-08-24T12:58:50.541Z,23.06
2018-08-24T13:01:19.260Z,22.81
2018-08-24T13:03:47.816Z,23.30
2018-08-24T13:06:16.461Z,22.92
2018-08-24T13:08:45.539Z,22.84
2018-08-24T13:11:14.617Z,22.92
2018-08-24T13:13:43.320Z,22.80
2018-08-24T13:16:11.939Z,23.17
2018-08-24T13:18:40.512Z,23.06
2018-08-24T13:21:08.957Z,23.09
2018-08-24T13:23:37.525Z,22.83
2018-08-24T13:26:06.138Z,22.95
2018-08-24T13:28:34.746Z,23.09
2018-08-24T13:31:03.292Z,23.46
2018-08-24T13:33:31.861Z,23.43
2018-08-24T13:36:00.504Z,23.87
2018-08-24T13:38:29.071Z,23.33
2018-08-24T13:40:57.625Z,22.92
2018-08-24T13:43:26.259Z,22.86
2018-08-24T13:45:54.764Z,23.14
2018-08-24T13:48:23.337Z,22.89
2018-08-24T13:50:51.954Z,22.99
2018-08-24T13:53:20.566Z,23.06
2018-08-24T13:55:49.160Z,22.58
2018-08-24T13:58:17.859Z,22.76
2018-08-24T14:00:46.435Z,22.58
2018-08-24T14:03:15.041Z,23.09
2018-08-24T14:05:43.884Z,23.11
2018-08-24T14:08:12.440Z,22.93
2018-08-24T14:10:40.952Z,22.96
2018-08-24T14:13:09.543Z,22.60
2018-08-24T14:15:38.530Z,23.03
2018-08-24T14:18:07.064Z,22.78
2018-08-24T14:20:35.721Z,23.04
2018-08-24T14:23:04.477Z,23.16
2018-08-24T14:25:33.160Z,23.01
2018-08-24T14:28:01.688Z,23.02
2018-08-24T14:30:30.250Z,23.12
2018-08-24T14:32:58.893Z,22.77
2018-08-24T14:35:27.540Z,23.12
2018-08-24T14:37:56.068Z,23.40
2018-08-24T14:40:24.624Z,22.72
2018-08-24T14:42:53.299Z,22.87
2018-08-24T14:45:22.004Z,23.55
2018-08-24T14:47:50.625Z,22.73
2018-08-24T14:50:19.325Z,22.60
2018-08-24T14:52:47.917Z,23.41
2018-08-24T14:55:16.428Z,22.64
2018-08-24T14:57:44.994Z,24.20
2018-08-24T15:00:13.595Z,23.65
2018-08-24T15:02:42.188Z,23.70
2018-08-24T15:05:12.011Z,22.91
2018-08-24T15:07:40.563Z,23.00
2018-08-24T15:10:10.083Z,23.13
2018-08-24T15:12:39.057Z,23.57
2018-08-24T15:15:08.044Z,24.00
2018-08-24T15:17:36.592Z,24.60
2018-08-24T15:20:05.895Z,24.42
2018-08-24T15:22:34.709Z,25.01
2018-08-24T15:25:03.496Z,24.09
2018-08-24T15:27:31.998Z,24.98
2018-08-24T15:30:00.488Z,24.75
2018-08-24T15:32:28.987Z,25.40
2018-08-24T15:34:57.507Z,24.96
2018-08-24T15:37:26.060Z,26.16
2018-08-24T15:39:54.621Z,25.58
2018-08-24T15:42:23.207Z,25.15
2018-08-24T15:44:51.765Z,25.27
2018-08-24T15:47:20.253Z,25.21
2018-08-24T15:49:48.939Z,25.54
2018-08-24T15:52:17.526Z,26.23
2018-08-24T15:54:46.091Z,25.99
2018-08-24T15:57:14.594Z,25.85
2018-08-24T15:59:43.112Z,26.67
2018-08-24T16:02:11.652Z,26.97
2018-08-24T16:04:40.253Z,26.51
2018-08-24T16:07:08.770Z,27.32
2018-08-24T16:09:37.432Z,26.97
2018-08-24T16:12:06.331Z,27.91
2018-08-24T16:14:35.034Z,28.35
2018-08-24T16:17:03.627Z,28.49
2018-08-24T16:19:32.163Z,27.84
2018-08-24T16:22:00.816Z,28.30
2018-08-24T16:24:29.309Z,28.20
2018-08-24T16:26:57.813Z,29.20
2018-08-24T16:29:26.483Z,29.11
2018-08-24T16:31:54.968Z,29.26
2018-08-24T16:34:23.539Z,28.27
2018-08-24T16:36:52.125Z,28.48
2018-08-24T16:39:20.627Z,28.50
2018-08-24T16:41:49.180Z,28.89
2018-08-24T16:44:17.663Z,29.09
2018-08-24T16:46:46.209Z,29.70
2018-08-24T16:49:14.690Z,28.82
2018-08-24T16:51:43.214Z,28.86
2018-08-24T16:54:11.928Z,29.30
2018-08-24T16:56:40.439Z,29.18
2018-08-24T16:59:09.004Z,29.55
2018-08-24T17:01:37.496Z,29.06
2018-08-24T17:04:06.105Z,28.98
2018-08-24T17:06:34.591Z,29.13
2018-08-24T17:09:03.136Z,29.14
2018-08-24T17:11:31.668Z,29.15
2018-08-24T17:14:00.216Z,29.79
2018-08-24T17:16:28.850Z,29.55
2018-08-24T17:18:57.407Z,29.34
2018-08-24T17:21:26.143Z,30.20
2018-08-24T17:23:55.528Z,30.50
2018-08-24T17:26:24.011Z,30.62
2018-08-24T17:28:53.596Z,30.64
2018-08-24T17:31:22.232Z,30.98
2018-08-24T17:33:50.728Z,31.05
2018-08-24T17:36:19.239Z,30.38
2018-08-24T17:38:47.785Z,31.18
2018-08-24T17:41:16.369Z,30.59
2018-08-24T17:43:45.244Z,30.60
2018-08-24T17:46:14.328Z,30.96
2018-08-24T17:48:42.894Z,31.88
2018-08-24T17:51:11.411Z,31.71
2018-08-24T17:53:39.968Z,31.03
2018-08-24T17:56:08.519Z,31.43
2018-08-24T17:58:37.140Z,31.71
2018-08-24T18:01:05.737Z,32.21
2018-08-24T18:03:34.284Z,32.17
2018-08-24T18:06:03.190Z,31.45
2018-08-24T18:08:31.720Z,31.77
2018-08-24T18:11:00.322Z,31.73
2018-08-24T18:13:28.852Z,32.05
2018-08-24T18:15:57.444Z,32.34
2018-08-24T18:18:25.933Z,32.68
2018-08-24T18:20:54.524Z,32.28
2018-08-24T18:23:23.110Z,32.42
2018-08-24T18:25:51.739Z,32.34
2018-08-24T18:28:20.205Z,32.43
2018-08-24T18:30:48.747Z,33.23
2018-08-24T18:33:17.331Z,32.96
2018-08-24T18:35:45.846Z,33.16
2018-08-24T18:38:14.313Z,33.75
2018-08-24T18:40:42.913Z,33.25
2018-08-24T18:43:11.460Z,33.54
2018-08-24T18:45:39.999Z,33.87
2018-08-24T18:48:15.130Z,33.80
2018-08-24T18:50:43.722Z,33.72
2018-08-24T18:53:12.179Z,34.27
2018-08-24T18:55:40.823Z,34.35
2018-08-24T18:58:09.480Z,33.55
2018-08-24T19:00:38.005Z,34.08
2018-08-24T19:03:06.508Z,34.08
2018-08-24T19:05:35.129Z,34.21
2018-08-24T19:08:11.917Z,34.82
2018-08-24T19:10:45.574Z,34.89
2018-08-24T19:13:16.105Z,34.72
2018-08-24T19:15:45.641Z,34.63
2018-08-24T19:18:19.525Z,34.87
2018-08-24T19:20:53.371Z,34.73
2018-08-24T19:23:21.827Z,34.88
2018-08-24T19:25:51.002Z,34.99
2018-08-24T19:28:24.773Z,35.09
2018-08-24T19:30:53.292Z,35.80
2018-08-24T19:33:21.852Z,35.69
2018-08-24T19:35:50.309Z,35.26
2018-08-24T19:38:18.957Z,35.31
2018-08-24T19:40:52.589Z,36.19
2018-08-24T19:43:21.205Z,36.28
2018-08-24T19:45:49.665Z,36.12
2018-08-24T19:48:23.616Z,36.83
2018-08-24T19:50:52.020Z,36.81
2018-08-24T19:53:20.575Z,36.97
2018-08-24T19:55:49.187Z,37.46
2018-08-24T19:58:23.252Z,37.55
2018-08-24T20:00:51.962Z,37.03
2018-08-24T20:03:20.371Z,37.52
2018-08-24T20:05:54.007Z,37.24
2018-08-24T20:08:27.752Z,37.50
2018-08-24T20:10:56.261Z,37.20
2018-08-24T20:13:24.811Z,37.83
2018-08-24T20:15:58.589Z,38.25
2018-08-24T20:18:27.223Z,37.47
2018-08-24T20:20:55.812Z,38.43
2018-08-24T20:23:24.437Z,37.75
2018-08-24T20:25:52.950Z,37.65
2018-08-24T20:28:21.560Z,38.13
2018-08-24T20:30:50.051Z,37.84
2018-08-24T20:33:18.558Z,38.27
2018-08-24T20:35:47.023Z,38.38
2018-08-24T20:38:15.515Z,37.99
2018-08-24T20:40:43.959Z,38.87
2018-08-24T20:43:12.560Z,38.21
2018-08-24T20:45:40.951Z,39.03
2018-08-24T20:48:09.449Z,38.47
2018-08-24T20:50:37.944Z,39.25
2018-08-24T20:53:06.527Z,38.88
2018-08-24T20:55:35.194Z,38.95
2018-08-24T20:58:03.639Z,39.41
2018-08-24T21:00:32.135Z,39.38
2018-08-24T21:03:00.718Z,39.68
2018-08-24T21:05:29.238Z,39.40
2018-08-24T21:07:57.779Z,39.69
2018-08-24T21:10:26.279Z,40.24
2018-08-24T21:12:54.765Z,39.84
2018-08-24T21:15:23.193Z,39.61
2018-08-24T21:17:51.740Z,40.23
2018-08-24T21:20:20.303Z,40.21
2018-08-24T21:22:48.957Z,40.01
2018-08-24T21:25:17.608Z,39.43
2018-08-24T21:27:46.136Z,38.55
2018-08-24T21:30:14.663Z,38.42
2018-08-24T21:32:43.317Z,38.39
2018-08-24T21:35:11.845Z,37.92
2018-08-24T21:37:40.479Z,37.39
2018-08-24T21:40:09.066Z,37.36
2018-08-24T21:42:37.751Z,37.72
2018-08-24T21:45:06.520Z,37.29
2018-08-24T21:47:35.027Z,37.12
2018-08-24T21:50:03.497Z,37.75
2018-08-24T21:52:31.985Z,37.38
2018-08-24T21:55:00.459Z,36.93
2018-08-24T21:57:28.945Z,37.54
2018-08-24T21:59:57.424Z,37.62
2018-08-24T22:02:25.944Z,36.63
2018-08-24T22:04:54.524Z,37.03
2018-08-24T22:07:22.970Z,37.65
2018-08-24T22:09:51.522Z,37.44
2018-08-24T22:12:20.018Z,37.31
2018-08-24T22:14:48.978Z,37.75
2018-08-24T22:17:17.505Z,37.58
2018-08-24T22:19:46.048Z,37.84
2018-08-24T22:22:14.571Z,37.65
2018-08-24T22:24:43.068Z,37.84
2018-08-24T22:27:11.669Z,37.81
2018-08-24T22:29:40.199Z,37.04
2018-08-24T22:32:08.696Z,37.29
2018-08-24T22:34:37.384Z,37.38
2018-08-24T22:37:05.851Z,36.90
2018-08-24T22:39:34.353Z,37.44
2018-08-24T22:42:03.069Z,37.20
2018-08-24T22:44:31.641Z,36.81
2018-08-24T22:47:00.197Z,36.87
2018-08-24T22:49:28.770Z,37.32
2018-08-24T22:51:57.272Z,36.84
2018-08-24T22:54:25.826Z,36.66
2018-08-24T22:56:54.392Z,37.06
2018-08-24T22:59:22.972Z,36.92
2018-08-24T23:01:51.499Z,37.10
2018-08-24T23:04:20.023Z,36.86
2018-08-24T23:06:48.532Z,36.97
2018-08-24T23:09:17.076Z,36.88
2018-08-24T23:11:45.577Z,37.08
2018-08-24T23:14:14.169Z,37.01
2018-08-24T23:16:42.695Z,36.36
2018-08-24T23:19:11.271Z,37.16
2018-08-24T23:21:39.817Z,37.02
2018-08-24T23:24:08.387Z,37.35
2018-08-24T23:26:36.880Z,36.96
2018-08-24T23:29:05.704Z,36.60
2018-08-24T23:31:34.162Z,37.81
2018-08-24T23:34:02.740Z,37.05
2018-08-24T23:36:31.164Z,36.77
2018-08-24T23:38:59.635Z,37.42
2018-08-24T23:41:28.102Z,37.45
2018-08-24T23:43:56.771Z,37.24
2018-08-24T23:46:25.265Z,37.58
2018-08-24T23:48:53.733Z,36.98
2018-08-24T23:51:22.281Z,37.72
2018-08-24T23:53:50.763Z,37.73
2018-08-24T23:56:19.333Z,38.38
2018-08-24T23:58:47.845Z,37.41
